Time;durP1;ratioP1;P1;durP2;ratioP2;P2;SDS_P1;SDS_P2;PMS_P1;PMS_P2;Temp;Humidity;BMP_temperature;BMP_pressure;BME280_temperature;BME280_humidity;BME280_pressure;Samples;Min_cycle;Max_cycle;Signal;HPM_P1;HPM_P2
2022/04/13 00:01:47;;;;;;;13.08;7.72;;;;;;;0.97;61.89;98162.33;1720582;83;20972;-75
2022/04/13 00:04:14;;;;;;;12.73;6.33;;;;;;;0.96;62.18;98166.22;1724711;83;21039;-75
2022/04/13 00:06:40;;;;;;;14.00;7.45;;;;;;;0.92;64.26;98164.02;1725311;83;21035;-74
2022/04/13 00:09:10;;;;;;;11.30;6.67;;;;;;;0.91;62.83;98172.26;1696548;83;21047;-74
2022/04/13 00:11:37;;;;;;;11.03;6.92;;;;;;;0.89;63.40;98173.98;1696514;83;21541;-75
2022/04/13 00:14:03;;;;;;;11.12;7.15;;;;;;;0.89;62.44;98183.12;1685395;85;21036;-74
2022/04/13 00:16:30;;;;;;;17.32;7.97;;;;;;;0.89;62.38;98184.42;1685554;85;21617;-74
2022/04/13 00:18:57;;;;;;;16.17;8.85;;;;;;;0.85;62.47;98177.41;1685512;85;21040;-74
2022/04/13 00:21:23;;;;;;;15.48;9.03;;;;;;;0.77;63.39;98182.53;1706765;84;21024;-75
2022/04/13 00:23:50;;;;;;;14.85;8.78;;;;;;;0.66;62.65;98184.11;1714389;83;21055;-75
2022/04/13 00:26:17;;;;;;;14.98;8.25;;;;;;;0.60;63.51;98177.09;1714639;84;21009;-75
2022/04/13 00:28:43;;;;;;;14.75;8.15;;;;;;;0.54;64.06;98172.23;1710779;83;20952;-74
2022/04/13 00:31:10;;;;;;;14.80;8.40;;;;;;;0.49;63.36;98171.73;1705730;82;20962;-75
2022/04/13 00:33:36;;;;;;;13.72;8.08;;;;;;;0.47;63.56;98183.88;1708680;84;21550;-74
2022/04/13 00:36:03;;;;;;;13.98;7.85;;;;;;;0.43;63.89;98185.11;1707996;83;21047;-74
2022/04/13 00:38:30;;;;;;;16.73;8.88;;;;;;;0.37;63.42;98189.80;1707943;84;21055;-75
2022/04/13 00:40:57;;;;;;;18.10;9.10;;;;;;;0.31;63.37;98191.02;1688054;84;21501;-75
2022/04/13 00:43:24;;;;;;;12.25;7.50;;;;;;;0.30;63.52;98195.37;1672456;86;21501;-75
2022/04/13 00:45:52;;;;;;;12.70;6.95;;;;;;;0.21;63.40;98189.58;1672386;85;21088;-75
2022/04/13 00:48:39;;;;;;;11.20;7.00;;;;;;;0.16;63.57;98191.68;1668894;85;21099;-75
2022/04/13 00:51:07;;;;;;;11.33;6.33;;;;;;;0.15;64.82;98190.79;1644036;87;21005;-74
2022/04/13 00:53:35;;;;;;;11.70;6.25;;;;;;;0.14;64.16;98189.05;1643927;87;21434;-75
2022/04/13 00:56:05;;;;;;;11.48;6.87;;;;;;;0.16;63.99;98200.80;1643787;87;21001;-75
2022/04/13 00:58:33;;;;;;;10.20;7.12;;;;;;;0.13;63.91;98197.73;1649523;86;21052;-75
2022/04/13 01:01:03;;;;;;;11.68;6.62;;;;;;;0.08;64.17;98198.08;1671438;86;21449;-75
2022/04/13 01:03:32;;;;;;;9.93;6.33;;;;;;;0.03;64.80;98194.08;1672912;85;21037;-75
2022/04/13 01:06:00;;;;;;;11.93;6.78;;;;;;;0.05;64.55;98194.11;1641686;86;21055;-75
2022/04/13 01:08:28;;;;;;;11.03;6.72;;;;;;;0.03;64.66;98190.17;1648275;85;21097;-75
2022/04/13 01:10:57;;;;;;;11.10;7.40;;;;;;;0.02;65.62;98184.52;1643596;87;21445;-75
2022/04/13 01:13:23;;;;;;;13.08;6.75;;;;;;;-0.03;66.65;98182.27;1643703;85;21549;-75
2022/04/13 01:15:50;;;;;;;12.70;7.20;;;;;;;-0.11;66.55;98181.25;1643818;87;21017;-75
2022/04/13 01:18:19;;;;;;;14.20;6.65;;;;;;;-0.16;65.80;98180.75;1665718;86;21135;-75
2022/04/13 01:20:56;;;;;;;11.22;6.67;;;;;;;-0.22;65.71;98181.07;1672654;86;21032;-75
2022/04/13 01:23:21;;;;;;;13.15;6.83;;;;;;;-0.21;65.72;98180.24;1671775;86;21096;-75
2022/04/13 01:25:52;;;;;;;11.48;7.12;;;;;;;-0.21;65.69;98179.80;1672521;86;21020;-75
2022/04/13 01:28:20;;;;;;;11.00;6.58;;;;;;;-0.22;65.64;98178.47;1651467;85;21048;-75
2022/04/13 01:30:49;;;;;;;12.88;7.45;;;;;;;-0.25;65.54;98179.30;1645532;87;21107;-75
2022/04/13 01:33:16;;;;;;;12.15;7.20;;;;;;;-0.26;65.49;98180.16;1645153;87;21056;-75
2022/04/13 01:35:42;;;;;;;10.70;7.12;;;;;;;-0.32;65.57;98179.64;1645294;87;21075;-74
2022/04/13 01:38:09;;;;;;;11.00;7.58;;;;;;;-0.31;65.63;98188.31;1663778;86;21056;-75
2022/04/13 01:40:35;;;;;;;10.60;7.20;;;;;;;-0.31;65.73;98192.22;1672932;86;21016;-74
2022/04/13 01:43:10;;;;;;;10.65;6.70;;;;;;;-0.33;66.99;98196.09;1672747;86;21044;-74
2022/04/13 01:45:36;;;;;;;13.15;7.05;;;;;;;-0.36;67.04;98199.08;1672515;86;21123;-74
2022/04/13 01:48:04;;;;;;;9.25;7.10;;;;;;;-0.38;66.81;98194.28;1655702;86;21060;-74
2022/04/13 01:50:30;;;;;;;13.20;7.28;;;;;;;-0.40;66.25;98191.64;1645109;86;21052;-74
2022/04/13 01:52:57;;;;;;;15.08;7.67;;;;;;;-0.43;66.16;98189.86;1645437;86;21032;-74
2022/04/13 01:55:23;;;;;;;12.90;8.18;;;;;;;-0.46;66.08;98192.41;1646059;87;21533;-74
2022/04/13 01:57:50;;;;;;;10.98;7.30;;;;;;;-0.47;65.95;98189.77;1659606;86;21032;-74
2022/04/13 02:00:17;;;;;;;10.88;7.17;;;;;;;-0.52;66.00;98198.81;1673063;85;21032;-75
2022/04/13 02:02:43;;;;;;;11.90;7.37;;;;;;;-0.57;65.97;98197.85;1672437;86;21070;-75
2022/04/13 02:05:10;;;;;;;13.00;7.12;;;;;;;-0.62;67.04;98198.19;1670184;86;21005;-74
2022/04/13 02:07:37;;;;;;;10.88;6.72;;;;;;;-0.67;66.52;98197.67;1646241;86;21056;-74
2022/04/13 02:10:06;;;;;;;12.63;7.47;;;;;;;-0.71;66.47;98198.46;1686558;85;21461;-74
2022/04/13 02:12:32;;;;;;;12.75;7.05;;;;;;;-0.72;66.48;98201.03;1688861;84;21068;-74
2022/04/13 02:14:59;;;;;;;11.90;7.30;;;;;;;-0.76;66.53;98204.01;1711222;83;21087;-74
2022/04/13 02:17:26;;;;;;;13.15;7.50;;;;;;;-0.76;66.76;98205.72;1720226;83;20993;-74
2022/04/13 02:19:52;;;;;;;13.85;6.60;;;;;;;-0.76;66.77;98201.41;1720181;83;20953;-74
2022/04/13 02:22:19;;;;;;;13.62;7.17;;;;;;;-0.78;66.75;98197.02;1720330;83;21433;-75
2022/04/13 02:24:45;;;;;;;13.93;7.55;;;;;;;-0.82;66.80;98194.79;1703172;83;20981;-74
2022/04/13 02:27:12;;;;;;;13.10;6.72;;;;;;;-0.83;67.03;98191.74;1691703;83;21004;-74
2022/04/13 02:29:42;;;;;;;11.93;6.90;;;;;;;-0.85;67.02;98195.61;1698689;83;20972;-74
2022/04/13 02:32:09;;;;;;;12.70;7.08;;;;;;;-0.81;67.83;98201.74;1720149;83;21035;-74
2022/04/13 02:34:36;;;;;;;10.68;6.87;;;;;;;-0.78;67.79;98200.92;1705553;83;21056;-74
2022/04/13 02:37:03;;;;;;;11.25;6.30;;;;;;;-0.83;67.33;98202.16;1691633;85;21434;-74
2022/04/13 02:39:29;;;;;;;10.78;6.40;;;;;;;-0.83;67.51;98205.61;1707861;83;21437;-74
2022/04/13 02:41:58;;;;;;;9.90;6.37;;;;;;;-0.81;67.52;98212.16;1719306;83;21465;-74
2022/04/13 02:44:24;;;;;;;10.35;6.53;;;;;;;-0.86;67.48;98208.59;1708079;83;21485;-74
2022/04/13 02:46:51;;;;;;;10.35;6.25;;;;;;;-0.85;67.42;98208.63;1689498;85;21115;-74
2022/04/13 02:49:17;;;;;;;8.93;6.00;;;;;;;-0.88;67.38;98216.80;1690183;85;21477;-75
2022/04/13 02:51:44;;;;;;;12.45;6.50;;;;;;;-0.92;67.46;98211.08;1690294;83;21056;-75
2022/04/13 02:54:10;;;;;;;10.18;5.97;;;;;;;-0.92;67.44;98214.98;1720103;83;20985;-75
2022/04/13 02:56:37;;;;;;;9.60;6.20;;;;;;;-0.95;67.50;98216.66;1720441;83;21040;-75
2022/04/13 02:59:04;;;;;;;9.18;6.33;;;;;;;-0.97;67.70;98214.87;1720280;83;21039;-75
2022/04/13 03:01:31;;;;;;;8.93;6.28;;;;;;;-1.00;67.58;98222.19;1720307;83;20997;-75
2022/04/13 03:03:58;;;;;;;10.03;6.47;;;;;;;-1.00;67.78;98213.08;1693559;83;20992;-75
2022/04/13 03:06:24;;;;;;;12.07;6.70;;;;;;;-1.00;67.63;98214.38;1689649;85;21501;-75
2022/04/13 03:08:51;;;;;;;11.08;7.22;;;;;;;-0.98;67.70;98219.63;1690045;85;21017;-75
2022/04/13 03:11:18;;;;;;;12.05;6.60;;;;;;;-0.96;67.80;98216.61;1690118;85;21039;-76
2022/04/13 03:13:46;;;;;;;9.78;6.28;;;;;;;-0.96;68.22;98215.31;1713923;83;21060;-76
2022/04/13 03:16:13;;;;;;;11.05;6.30;;;;;;;-0.98;67.81;98210.11;1720382;83;21071;-76
2022/04/13 03:18:39;;;;;;;13.53;7.42;;;;;;;-1.03;67.80;98214.75;1720344;83;21060;-76
2022/04/13 03:21:06;;;;;;;13.10;6.72;;;;;;;-1.03;67.83;98208.25;1709030;83;20981;-75
2022/04/13 03:23:32;;;;;;;13.95;7.87;;;;;;;-1.05;67.85;98212.55;1690109;85;20989;-75
2022/04/13 03:25:59;;;;;;;10.50;6.45;;;;;;;-1.10;67.99;98213.33;1690220;83;21044;-75
2022/04/13 03:28:26;;;;;;;10.58;6.85;;;;;;;-1.09;68.10;98213.78;1690232;85;20995;-75
2022/04/13 03:30:53;;;;;;;13.53;7.03;;;;;;;-1.09;68.07;98213.78;1692351;83;21384;-75
2022/04/13 03:33:20;;;;;;;11.03;6.50;;;;;;;-1.13;67.97;98217.16;1691589;85;20984;-75
2022/04/13 03:35:46;;;;;;;12.35;7.30;;;;;;;-1.13;68.04;98220.20;1691443;85;21052;-75
2022/04/13 03:38:13;;;;;;;17.85;7.65;;;;;;;-1.13;68.11;98216.30;1691682;84;21584;-75
2022/04/13 03:40:40;;;;;;;16.55;7.80;;;;;;;-1.14;68.14;98228.83;1696467;83;21448;-76
2022/04/13 03:43:06;;;;;;;13.18;6.60;;;;;;;-1.17;68.17;98230.94;1720343;83;20984;-75
2022/04/13 03:45:33;;;;;;;13.83;7.10;;;;;;;-1.21;68.23;98228.70;1719891;83;21028;-75
2022/04/13 03:47:59;;;;;;;11.63;6.87;;;;;;;-1.23;68.46;98230.41;1720288;83;20992;-75
2022/04/13 03:50:26;;;;;;;12.05;6.87;;;;;;;-1.26;68.32;98226.84;1718351;83;21040;-75
2022/04/13 03:52:53;;;;;;;11.40;7.00;;;;;;;-1.26;68.47;98232.94;1691516;85;21004;-75
2022/04/13 03:55:22;;;;;;;11.28;7.10;;;;;;;-1.24;68.48;98223.42;1696905;83;21445;-75
2022/04/13 03:57:51;;;;;;;19.12;8.85;;;;;;;-1.22;68.48;98237.36;1714604;83;21057;-75
2022/04/13 04:00:18;;;;;;;18.52;8.40;;;;;;;-1.23;68.48;98238.21;1690816;85;21000;-75
2022/04/13 04:02:44;;;;;;;14.85;8.58;;;;;;;-1.22;68.46;98243.86;1691436;84;21012;-75
2022/04/13 04:05:12;;;;;;;13.58;7.67;;;;;;;-1.24;69.00;98246.83;1691413;85;21020;-75
2022/04/13 04:07:39;;;;;;;14.13;8.65;;;;;;;-1.20;68.95;98249.10;1694674;83;21075;-76
2022/04/13 04:10:09;;;;;;;11.48;7.37;;;;;;;-1.16;68.74;98249.59;1720312;83;21709;-76
2022/04/13 04:12:39;;;;;;;13.13;8.40;;;;;;;-1.22;68.98;98245.16;1721332;82;21469;-75
2022/04/13 04:15:09;;;;;;;15.90;8.20;;;;;;;-1.19;69.05;98253.45;1725818;83;21469;-76
2022/04/13 04:17:36;;;;;;;13.85;8.58;;;;;;;-1.21;68.83;98253.41;1703491;83;20964;-75
2022/04/13 04:20:06;;;;;;;14.35;7.28;;;;;;;-1.22;69.06;98253.38;1696737;84;21493;-75
2022/04/13 04:22:34;;;;;;;12.10;7.45;;;;;;;-1.16;69.05;98257.84;1696900;84;21012;-75
2022/04/13 04:25:06;;;;;;;12.82;7.12;;;;;;;-1.12;69.09;98260.52;1707951;83;21586;-75
2022/04/13 04:27:33;;;;;;;13.28;8.05;;;;;;;-1.09;69.26;98260.60;1725808;83;20984;-75
2022/04/13 04:30:00;;;;;;;12.33;7.05;;;;;;;-1.08;68.87;98262.35;1703862;83;21067;-75
2022/04/13 04:32:27;;;;;;;13.15;7.28;;;;;;;-1.03;68.93;98257.27;1696974;84;21323;-75
2022/04/13 04:34:53;;;;;;;11.65;7.47;;;;;;;-1.00;69.47;98267.72;1706437;83;21012;-75
2022/04/13 04:37:21;;;;;;;14.58;6.72;;;;;;;-0.93;69.70;98270.03;1725554;83;21777;-75
2022/04/13 04:39:48;;;;;;;11.08;6.53;;;;;;;-0.84;69.46;98259.81;1725932;83;21043;-75
2022/04/13 04:42:15;;;;;;;13.58;6.85;;;;;;;-0.69;69.04;98263.57;1725976;83;21465;-75
2022/04/13 04:44:41;;;;;;;11.63;6.72;;;;;;;-0.62;68.87;98269.78;1719410;83;20981;-75
2022/04/13 04:47:08;;;;;;;16.25;6.95;;;;;;;-0.60;68.50;98266.36;1696895;84;21047;-75
2022/04/13 04:49:35;;;;;;;14.55;6.90;;;;;;;-0.54;68.61;98269.52;1697027;84;21413;-75
2022/04/13 04:52:01;;;;;;;12.80;7.03;;;;;;;-0.42;68.41;98267.12;1697111;84;20992;-75
2022/04/13 04:54:28;;;;;;;14.45;7.20;;;;;;;-0.36;68.25;98268.09;1720560;83;21421;-75
2022/04/13 04:56:54;;;;;;;15.28;7.50;;;;;;;-0.31;68.27;98275.16;1726063;83;21023;-75
2022/04/13 04:59:21;;;;;;;11.80;7.03;;;;;;;-0.29;68.00;98275.19;1726042;83;20957;-75
2022/04/13 05:01:49;;;;;;;12.53;6.67;;;;;;;-0.33;67.90;98279.88;1724961;83;21023;-75
2022/04/13 05:04:16;;;;;;;13.58;7.67;;;;;;;-0.33;68.27;98278.13;1705095;83;20992;-75
2022/04/13 05:06:42;;;;;;;14.25;6.95;;;;;;;-0.30;68.18;98277.31;1697000;84;21402;-75
2022/04/13 05:09:09;;;;;;;11.73;7.25;;;;;;;-0.29;67.99;98283.86;1696648;84;21044;-74
2022/04/13 05:11:36;;;;;;;9.48;6.80;;;;;;;-0.25;68.37;98286.09;1696919;84;20996;-75
2022/04/13 05:14:02;;;;;;;17.73;8.68;;;;;;;-0.20;67.87;98288.80;1706232;84;21052;-75
2022/04/13 05:16:29;;;;;;;15.25;7.53;;;;;;;-0.18;67.95;98288.38;1714515;84;21112;-74
2022/04/13 05:18:55;;;;;;;15.75;8.23;;;;;;;-0.14;67.81;98287.59;1715256;84;21402;-74
2022/04/13 05:21:22;;;;;;;15.08;8.60;;;;;;;-0.10;67.70;98293.73;1714841;83;21048;-74
2022/04/13 05:23:49;;;;;;;15.35;8.08;;;;;;;-0.04;67.66;98295.16;1700474;83;21454;-74
2022/04/13 05:26:18;;;;;;;12.47;8.10;;;;;;;0.03;67.60;98291.80;1686884;84;21012;-74
2022/04/13 05:28:45;;;;;;;12.47;7.72;;;;;;;0.11;67.59;98288.91;1686409;85;21465;-74
2022/04/13 05:31:12;;;;;;;14.60;7.90;;;;;;;0.15;67.69;98297.66;1721430;82;20969;-75
2022/04/13 05:33:38;;;;;;;11.12;7.58;;;;;;;0.20;67.38;98297.75;1710105;84;21010;-74
2022/04/13 05:36:06;;;;;;;16.17;8.63;;;;;;;0.22;67.42;98289.11;1709895;84;21409;-74
2022/04/13 05:38:33;;;;;;;15.23;8.10;;;;;;;0.26;67.22;98296.55;1697355;84;20957;-74
2022/04/13 05:41:00;;;;;;;14.28;8.10;;;;;;;0.33;67.24;98294.92;1708875;84;21457;-74
2022/04/13 05:43:30;;;;;;;13.10;8.28;;;;;;;0.38;67.27;98290.20;1698097;84;21071;-75
2022/04/13 05:45:55;;;;;;;18.67;9.50;;;;;;;0.46;67.12;98290.77;1680444;83;21482;-75
2022/04/13 05:48:22;;;;;;;14.93;8.65;;;;;;;0.54;67.33;98296.96;1680664;85;20968;-75
2022/04/13 05:50:50;;;;;;;16.65;8.43;;;;;;;0.63;67.14;98296.25;1680635;85;21560;-75
2022/04/13 05:53:27;;;;;;;15.80;8.95;;;;;;;0.72;67.31;98300.72;1673484;85;21463;-75
2022/04/13 05:55:56;;;;;;;14.80;9.03;;;;;;;0.81;67.34;98299.55;1653282;85;21048;-75
2022/04/13 05:58:27;;;;;;;14.30;8.83;;;;;;;0.92;67.08;98295.80;1653084;86;21426;-76
2022/04/13 06:00:55;;;;;;;15.48;8.93;;;;;;;1.00;67.08;98301.98;1653201;87;21071;-75
2022/04/13 06:03:23;;;;;;;17.48;9.10;;;;;;;1.10;66.98;98299.08;1660654;85;21450;-74
2022/04/13 06:05:51;;;;;;;40.63;21.10;;;;;;;1.21;66.80;98296.63;1680582;85;21036;-75
2022/04/13 06:08:17;;;;;;;20.92;12.03;;;;;;;1.30;66.64;98299.77;1680586;85;21052;-75
2022/04/13 06:10:44;;;;;;;17.25;9.53;;;;;;;1.42;66.56;98304.27;1688072;84;21413;-75
2022/04/13 06:13:11;;;;;;;16.57;8.50;;;;;;;1.53;66.48;98299.19;1708822;83;21035;-75
2022/04/13 06:15:37;;;;;;;18.87;8.75;;;;;;;1.63;66.33;98297.12;1703500;84;21467;-75
2022/04/13 06:18:04;;;;;;;12.68;8.55;;;;;;;1.75;66.16;98307.25;1703127;84;21025;-75
2022/04/13 06:20:31;;;;;;;18.42;8.60;;;;;;;1.87;66.07;98307.36;1709051;83;21014;-75
2022/04/13 06:22:57;;;;;;;12.53;8.18;;;;;;;2.01;65.89;98302.30;1734151;82;20982;-74
2022/04/13 06:25:24;;;;;;;15.75;9.35;;;;;;;2.14;65.67;98308.94;1723097;83;21473;-74
2022/04/13 06:27:51;;;;;;;14.28;8.43;;;;;;;2.25;65.51;98306.02;1703619;84;21057;-74
2022/04/13 06:30:17;;;;;;;15.55;8.93;;;;;;;2.38;65.47;98308.30;1700312;82;21070;-75
2022/04/13 06:32:46;;;;;;;16.73;8.48;;;;;;;2.52;65.05;98310.16;1716738;83;21006;-75
2022/04/13 06:35:16;;;;;;;14.73;8.38;;;;;;;2.66;64.70;98308.52;1708401;84;21483;-75
2022/04/13 06:37:45;;;;;;;11.65;7.72;;;;;;;2.82;64.37;98296.39;1738820;82;21012;-75
2022/04/13 06:40:14;;;;;;;15.38;8.55;;;;;;;2.97;64.43;98304.79;1737181;83;21002;-74
2022/04/13 06:42:41;;;;;;;11.88;8.10;;;;;;;3.09;64.26;98301.37;1745078;82;20952;-75
2022/04/13 06:45:13;;;;;;;11.05;7.28;;;;;;;3.19;64.05;98300.11;1728456;83;20991;-74
2022/04/13 06:47:41;;;;;;;16.67;8.88;;;;;;;3.30;64.09;98304.53;1734863;82;21000;-75
2022/04/13 06:50:10;;;;;;;12.70;8.18;;;;;;;3.50;64.21;98299.81;1720856;83;21451;-75
2022/04/13 06:52:38;;;;;;;45.10;23.32;;;;;;;3.64;63.83;98295.03;1726327;83;21539;-75
2022/04/13 06:55:09;;;;;;;15.65;9.23;;;;;;;3.74;63.33;98298.57;1678661;84;21065;-75
2022/04/13 06:57:37;;;;;;;10.20;7.70;;;;;;;3.83;62.93;98288.11;1743024;82;21023;-74
2022/04/13 07:00:08;;;;;;;11.88;6.78;;;;;;;3.95;62.66;98297.76;1729117;83;21045;-74
2022/04/13 07:02:36;;;;;;;12.73;5.90;;;;;;;4.05;62.69;98292.97;1738219;82;21023;-74
2022/04/13 07:05:04;;;;;;;8.33;5.22;;;;;;;4.20;61.33;98292.55;1730490;82;21516;-74
2022/04/13 07:07:31;;;;;;;10.43;5.17;;;;;;;4.34;60.41;98293.86;1706798;84;21073;-72
2022/04/13 07:09:58;;;;;;;9.25;4.37;;;;;;;4.46;60.25;98292.98;1696999;83;21036;-72
2022/04/13 07:12:25;;;;;;;8.78;5.85;;;;;;;4.56;58.86;98292.10;1696430;84;20965;-73
2022/04/13 07:14:54;;;;;;;8.25;5.75;;;;;;;4.71;58.73;98289.91;1676211;84;21055;-73
2022/04/13 07:17:20;;;;;;;8.53;5.60;;;;;;;4.82;58.93;98295.13;1661024;86;22219;-73
2022/04/13 07:19:47;;;;;;;11.38;6.70;;;;;;;4.94;58.54;98293.37;1680271;84;21111;-73
2022/04/13 07:22:14;;;;;;;14.25;6.75;;;;;;;5.03;55.69;98295.99;1683866;85;21008;-73
2022/04/13 07:24:40;;;;;;;14.98;6.58;;;;;;;5.19;57.53;98300.74;1655695;87;21616;-73
2022/04/13 07:27:07;;;;;;;14.10;6.92;;;;;;;5.31;55.82;98302.92;1680370;85;21493;-73
2022/04/13 07:29:34;;;;;;;10.80;5.72;;;;;;;5.43;55.77;98296.75;1661301;85;21111;-73
2022/04/13 07:32:00;;;;;;;9.33;5.55;;;;;;;5.52;54.96;98296.25;1651928;87;21103;-73
2022/04/13 07:34:27;;;;;;;12.43;5.55;;;;;;;5.63;53.38;98292.27;1651920;87;21084;-73
2022/04/13 07:36:54;;;;;;;8.00;5.28;;;;;;;5.73;54.68;98293.54;1657607;85;21007;-73
2022/04/13 07:39:21;;;;;;;6.83;3.95;;;;;;;5.84;53.88;98293.45;1680748;85;21051;-73
2022/04/13 07:41:48;;;;;;;6.10;3.87;;;;;;;5.96;53.98;98292.09;1680820;85;21063;-72
2022/04/13 07:44:14;;;;;;;6.05;3.50;;;;;;;6.07;53.11;98294.69;1680585;85;21481;-72
2022/04/13 07:46:41;;;;;;;6.65;3.90;;;;;;;6.13;50.63;98292.01;1677374;85;21265;-72
2022/04/13 07:49:09;;;;;;;9.18;4.53;;;;;;;6.20;52.01;98291.06;1680170;85;21088;-72
2022/04/13 07:51:36;;;;;;;7.30;4.60;;;;;;;6.27;50.90;98294.53;1680793;85;21060;-72
2022/04/13 07:54:03;;;;;;;7.10;4.30;;;;;;;6.32;50.08;98297.15;1680677;85;21032;-72
2022/04/13 07:56:30;;;;;;;20.35;11.60;;;;;;;6.34;50.20;98297.56;1679894;85;21047;-72
2022/04/13 07:59:00;;;;;;;7.85;4.50;;;;;;;6.41;49.83;98293.56;1651773;87;21013;-72
2022/04/13 08:01:26;;;;;;;6.92;3.92;;;;;;;6.48;47.81;98293.96;1651986;87;21024;-72
2022/04/13 08:03:53;;;;;;;5.53;3.72;;;;;;;6.56;48.88;98299.16;1651625;87;21025;-73
2022/04/13 08:06:20;;;;;;;5.03;3.98;;;;;;;6.69;48.14;98286.75;1651883;87;21461;-73
2022/04/13 08:08:46;;;;;;;5.83;4.20;;;;;;;6.80;48.90;98293.22;1679381;85;21013;-73
2022/04/13 08:11:13;;;;;;;5.35;4.20;;;;;;;6.84;48.60;98293.63;1680348;85;21190;-73
2022/04/13 08:13:40;;;;;;;6.10;3.70;;;;;;;6.86;48.10;98293.18;1680678;84;21040;-74
2022/04/13 08:16:06;;;;;;;5.67;3.95;;;;;;;6.91;46.41;98290.05;1680616;85;21001;-73
2022/04/13 08:18:33;;;;;;;5.85;3.77;;;;;;;6.95;46.37;98285.19;1655927;85;21055;-73
2022/04/13 08:21:02;;;;;;;4.42;3.80;;;;;;;7.03;47.04;98286.42;1651678;87;21072;-73
2022/04/13 08:23:29;;;;;;;6.35;3.70;;;;;;;7.08;47.17;98283.30;1656674;87;21067;-73
2022/04/13 08:25:55;;;;;;;6.15;4.12;;;;;;;7.14;47.37;98298.14;1651620;87;21035;-73
2022/04/13 08:28:22;;;;;;;6.70;4.28;;;;;;;7.20;46.81;98295.90;1673716;85;21036;-73
2022/04/13 08:30:48;;;;;;;5.97;4.42;;;;;;;7.28;46.88;98293.17;1680664;85;21595;-73
2022/04/13 08:33:14;;;;;;;6.95;3.85;;;;;;;7.30;45.38;98284.82;1680724;85;21024;-73
2022/04/13 08:35:43;;;;;;;5.20;4.08;;;;;;;7.31;45.69;98290.05;1680633;85;21119;-71
2022/04/13 08:38:10;;;;;;;5.30;3.72;;;;;;;7.39;45.37;98280.73;1661038;85;21104;-72
2022/04/13 08:40:51;;;;;;;4.80;3.77;;;;;;;7.46;46.24;98284.17;1651880;87;21016;-72
2022/04/13 08:43:23;;;;;;;6.75;4.28;;;;;;;7.49;45.27;98278.44;1651890;87;21060;-72
2022/04/13 08:45:59;;;;;;;5.95;4.45;;;;;;;7.60;43.90;98276.09;1662440;85;21016;-72
2022/04/13 08:48:27;;;;;;;8.25;3.95;;;;;;;7.70;45.18;98276.41;1680825;85;21032;-72
2022/04/13 08:51:00;;;;;;;7.47;4.00;;;;;;;7.75;45.01;98274.57;1680626;85;21070;-72
2022/04/13 08:53:32;;;;;;;6.12;3.50;;;;;;;7.83;42.77;98272.26;1651596;85;21055;-71
2022/04/13 08:56:01;;;;;;;6.62;3.98;;;;;;;7.89;43.58;98271.73;1668542;85;21437;-72
2022/04/13 08:59:01;;;;;;;7.28;4.42;;;;;;;7.95;41.98;98254.95;1651909;87;21044;-72
2022/04/13 09:01:59;;;;;;;4.28;3.67;;;;;;;8.02;42.51;98261.86;1651046;87;21056;-72
2022/04/13 09:04:30;;;;;;;6.12;3.52;;;;;;;8.12;42.59;98249.41;1653777;85;21012;-72
2022/04/13 09:07:00;;;;;;;6.92;4.15;;;;;;;8.15;40.98;98253.30;1651687;87;21509;-72
2022/04/13 09:09:41;;;;;;;6.22;3.80;;;;;;;8.25;43.11;98250.08;1651845;87;20996;-72
2022/04/13 09:12:13;;;;;;;7.33;4.47;;;;;;;8.32;42.56;98251.71;1651619;87;21565;-72
2022/04/13 09:14:42;;;;;;;5.62;4.08;;;;;;;8.41;42.27;98245.43;1677493;84;21053;-73
2022/04/13 09:17:10;;;;;;;5.65;4.33;;;;;;;8.56;40.99;98240.34;1700689;84;21043;-72
2022/04/13 09:19:38;;;;;;;6.47;4.22;;;;;;;8.66;40.97;98246.80;1700536;84;21017;-72
2022/04/13 09:22:05;;;;;;;6.37;4.47;;;;;;;8.68;41.67;98241.91;1700565;84;21015;-73
2022/04/13 09:24:32;;;;;;;5.12;4.03;;;;;;;8.70;41.29;98240.13;1686639;84;20958;-72
2022/04/13 09:26:59;;;;;;;6.85;4.10;;;;;;;8.74;41.03;98238.29;1670887;86;21048;-72
2022/04/13 09:29:27;;;;;;;5.28;3.90;;;;;;;8.87;39.27;98223.52;1671148;85;21029;-73
2022/04/13 09:31:53;;;;;;;5.72;3.95;;;;;;;8.93;37.66;98222.09;1670905;86;21017;-72
2022/04/13 09:34:21;;;;;;;7.47;4.35;;;;;;;8.97;38.33;98218.03;1680699;84;20978;-72
2022/04/13 09:36:50;;;;;;;11.10;6.25;;;;;;;9.04;39.11;98220.11;1700223;84;21069;-74
2022/04/13 09:39:22;;;;;;;6.42;4.25;;;;;;;9.12;39.40;98210.70;1700530;84;20970;-72
2022/04/13 09:41:51;;;;;;;5.85;3.10;;;;;;;9.22;39.40;98212.24;1700400;84;21501;-72
2022/04/13 09:44:22;;;;;;;5.03;3.35;;;;;;;9.27;34.03;98213.48;1691810;84;21032;-72
2022/04/13 09:46:49;;;;;;;4.58;3.20;;;;;;;9.29;34.28;98208.14;1670776;86;21096;-72
2022/04/13 09:49:21;;;;;;;5.58;4.12;;;;;;;9.29;36.00;98203.73;1670847;86;21052;-72
2022/04/13 09:51:50;;;;;;;6.08;3.30;;;;;;;9.36;35.28;98204.48;1668408;86;21038;-71
2022/04/13 09:54:17;;;;;;;4.58;3.60;;;;;;;9.44;36.02;98198.58;1698719;84;20994;-71
2022/04/13 09:56:47;;;;;;;5.25;3.80;;;;;;;9.42;33.62;98196.88;1697674;84;21053;-71
2022/04/13 09:59:29;;;;;;;4.87;3.58;;;;;;;9.46;34.51;98186.18;1700467;84;21025;-73
2022/04/13 10:01:57;;;;;;;5.35;3.37;;;;;;;9.66;36.86;98179.57;1700492;84;21001;-72
2022/04/13 10:04:30;;;;;;;6.42;3.72;;;;;;;9.90;37.44;98183.88;1672377;84;21112;-72
2022/04/13 10:07:15;;;;;;;5.70;3.67;;;;;;;10.07;35.98;98175.53;1670966;86;21478;-73
2022/04/13 10:09:42;;;;;;;7.17;4.35;;;;;;;10.32;36.40;98172.26;1647802;86;21041;-73
2022/04/13 10:12:10;;;;;;;6.47;3.60;;;;;;;10.48;34.52;98179.84;1671181;84;21033;-73
2022/04/13 10:14:36;;;;;;;5.33;3.80;;;;;;;10.48;34.09;98173.21;1701641;84;21459;-73
2022/04/13 10:17:16;;;;;;;6.25;3.55;;;;;;;10.51;34.52;98174.47;1682621;84;20976;-73
2022/04/13 10:19:58;;;;;;;5.03;3.25;;;;;;;10.64;34.95;98163.96;1674044;86;21406;-73
2022/04/13 10:22:29;;;;;;;4.72;3.62;;;;;;;10.78;33.38;98170.64;1677184;84;21140;-73
2022/04/13 10:25:20;;;;;;;6.03;3.08;;;;;;;10.79;34.27;98160.45;1703391;84;21048;-72
2022/04/13 10:27:59;;;;;;;4.10;2.58;;;;;;;10.81;31.81;98160.81;1703511;84;21005;-73
2022/04/13 10:30:36;;;;;;;5.90;3.12;;;;;;;10.91;31.53;98152.16;1703548;84;21333;-73
2022/04/13 10:33:06;;;;;;;6.03;3.10;;;;;;;11.09;33.53;98160.04;1693333;84;21005;-73
2022/04/13 10:35:39;;;;;;;5.95;2.95;;;;;;;11.29;33.58;98157.25;1673854;86;21045;-73
2022/04/13 10:38:06;;;;;;;3.55;2.33;;;;;;;11.48;33.41;98151.39;1673732;86;21016;-72
2022/04/13 10:40:37;;;;;;;4.92;2.90;;;;;;;11.74;32.59;98149.26;1673869;86;21041;-72
2022/04/13 10:43:06;;;;;;;3.80;2.42;;;;;;;12.53;33.22;98147.58;1683851;84;21021;-73
2022/04/13 10:45:34;;;;;;;4.30;2.62;;;;;;;14.10;29.43;98136.80;1703514;84;20994;-72
2022/04/13 10:48:08;;;;;;;3.83;2.55;;;;;;;15.68;28.71;98129.38;1703427;84;21411;-72
2022/04/13 10:50:48;;;;;;;;;;;;;;;17.02;27.56;98132.91;1706054;84;21029;-73
2022/04/13 10:53:35;;;;;;;5.87;2.65;;;;;;;18.05;24.84;98121.90;1692562;84;20133;-73
2022/04/13 10:56:06;;;;;;;3.83;2.50;;;;;;;19.05;23.86;98118.70;1672365;84;21024;-73
2022/04/13 10:58:50;;;;;;;3.42;2.37;;;;;;;20.10;26.24;98119.66;1673804;86;21045;-73
2022/04/13 11:01:20;;;;;;;4.08;2.33;;;;;;;20.75;21.61;98112.20;1660028;86;21037;-73
2022/04/13 11:03:48;;;;;;;2.67;2.22;;;;;;;21.63;21.23;98118.56;1689767;84;21005;-72
2022/04/13 11:06:15;;;;;;;3.42;2.37;;;;;;;22.19;19.45;98121.25;1703364;84;21391;-73
2022/04/13 11:09:02;;;;;;;3.45;2.45;;;;;;;21.64;16.64;98110.87;1703524;84;21025;-73
2022/04/13 11:11:31;;;;;;;4.17;2.80;;;;;;;22.34;20.00;98108.41;1695607;84;21124;-72
2022/04/13 11:13:58;;;;;;;2.72;2.37;;;;;;;23.15;17.96;98114.37;1673751;86;21068;-72
2022/04/13 11:16:27;;;;;;;3.02;2.55;;;;;;;23.40;18.81;98102.09;1674009;86;21415;-73
2022/04/13 11:19:09;;;;;;;3.05;2.25;;;;;;;23.88;19.30;98111.73;1673812;86;21030;-72
2022/04/13 11:21:57;;;;;;;2.83;2.37;;;;;;;24.32;17.72;98102.23;1682334;84;21077;-72
2022/04/13 11:24:47;;;;;;;3.47;2.33;;;;;;;24.68;17.57;98101.05;1703408;84;21044;-72
2022/04/13 11:27:16;;;;;;;3.58;2.33;;;;;;;25.00;16.74;98104.20;1703090;84;21049;-73
2022/04/13 11:29:45;;;;;;;3.65;2.10;;;;;;;25.42;17.28;98098.66;1697280;84;21438;-72
2022/04/13 11:32:15;;;;;;;2.72;2.30;;;;;;;25.82;17.56;98094.70;1649887;86;21305;-72
2022/04/13 11:34:51;;;;;;;2.92;2.42;;;;;;;25.89;16.31;98098.59;1673613;86;20988;-72
2022/04/13 11:37:36;;;;;;;3.10;2.30;;;;;;;26.05;15.80;98098.53;1673807;86;21052;-72
2022/04/13 11:40:10;;;;;;;4.35;2.35;;;;;;;26.14;16.10;98088.18;1682897;84;21103;-73